Time;durP1;ratioP1;P1;durP2;ratioP2;P2;SDS_P1;SDS_P2;PMS_P1;PMS_P2;Temp;Humidity;BMP_temperature;BMP_pressure;BME280_temperature;BME280_humidity;BME280_pressure;Samples;Min_cycle;Max_cycle;Signal;HPM_P1;HPM_P2
2023/12/21 00:00:34;;;;;;;;;;;7.30;99.90;;;;;;5146615;27;20306;-71
2023/12/21 00:03:00;;;;;;;;;;;7.30;99.90;;;;;;5141690;27;19911;-71
2023/12/21 00:05:25;;;;;;;;;;;7.30;99.90;;;;;;5108286;27;20751;-71
2023/12/21 00:07:51;;;;;;;;;;;7.30;99.90;;;;;;5128446;27;20232;-71
2023/12/21 00:10:16;;;;;;;;;;;7.30;99.90;;;;;;5129178;27;19923;-71
2023/12/21 00:12:42;;;;;;;;;;;7.30;99.90;;;;;;5134156;27;19912;-71
2023/12/21 00:15:08;;;;;;;;;;;7.30;99.90;;;;;;5126907;27;20579;-71
2023/12/21 00:17:33;;;;;;;;;;;7.40;99.90;;;;;;5123089;27;19919;-71
2023/12/21 00:19:59;;;;;;;;;;;7.30;99.90;;;;;;5139588;27;19950;-71
2023/12/21 00:22:24;;;;;;;;;;;7.40;99.90;;;;;;5128664;27;19919;-71
2023/12/21 00:24:50;;;;;;;;;;;7.30;99.90;;;;;;5133201;27;20337;-71
2023/12/21 00:27:15;;;;;;;;;;;7.40;99.90;;;;;;5134468;27;20654;-71
2023/12/21 00:29:41;;;;;;;;;;;7.40;99.90;;;;;;5135270;27;19911;-71
2023/12/21 00:32:06;;;;;;;;;;;7.40;99.90;;;;;;5134547;27;19919;-71
2023/12/21 00:34:32;;;;;;;;;;;7.40;99.90;;;;;;5139847;27;19911;-71
2023/12/21 00:36:57;;;;;;;;;;;7.40;99.90;;;;;;5145571;27;20010;-71
2023/12/21 00:39:23;;;;;;;;;;;7.40;99.90;;;;;;5150190;27;19911;-71
2023/12/21 00:41:49;;;;;;;;;;;7.40;99.90;;;;;;5142814;27;19934;-71
2023/12/21 00:44:14;;;;;;;;;;;7.40;99.90;;;;;;5142670;27;19921;-71
2023/12/21 00:46:40;;;;;;;;;;;7.40;99.90;;;;;;5119211;27;19920;-71
2023/12/21 00:49:05;;;;;;;;;;;7.40;99.90;;;;;;5130722;27;19912;-71
2023/12/21 00:51:31;;;;;;;;;;;7.40;99.90;;;;;;5135780;27;20081;-71
2023/12/21 00:53:56;;;;;;;;;;;7.40;99.90;;;;;;5132072;27;19918;-72
2023/12/21 00:56:22;;;;;;;;;;;7.40;99.90;;;;;;5120442;27;20559;-71
2023/12/21 00:58:47;;;;;;;;;;;7.40;99.90;;;;;;5141916;27;19911;-71
2023/12/21 01:01:13;;;;;;;;;;;7.40;99.90;;;;;;5149397;27;19915;-71
2023/12/21 01:03:38;;;;;;;;;;;7.40;99.90;;;;;;5147333;27;19912;-71
2023/12/21 01:06:04;;;;;;;;;;;7.40;99.90;;;;;;5141502;27;19921;-72
2023/12/21 01:08:29;;;;;;;;;;;7.40;99.90;;;;;;5132541;27;19996;-71
2023/12/21 01:10:55;;;;;;;;;;;7.40;99.90;;;;;;5125379;27;20292;-71
2023/12/21 01:13:21;;;;;;;;;;;7.50;99.90;;;;;;5146609;27;19915;-71
2023/12/21 01:15:46;;;;;;;;;;;7.40;99.90;;;;;;5149837;27;19919;-71
2023/12/21 01:18:12;;;;;;;;;;;7.40;99.90;;;;;;5141410;27;19955;-71
2023/12/21 01:20:37;;;;;;;;;;;7.40;99.90;;;;;;5141049;27;19918;-71
2023/12/21 01:23:03;;;;;;;;;;;7.50;99.90;;;;;;5116855;27;19908;-71
2023/12/21 01:25:29;;;;;;;;;;;7.50;99.90;;;;;;5144070;27;19957;-71
2023/12/21 01:27:54;;;;;;;;;;;7.50;99.90;;;;;;5147854;27;19979;-71
2023/12/21 01:30:21;;;;;;;;;;;7.50;99.90;;;;;;5141466;27;20060;-71
2023/12/21 01:32:47;;;;;;;;;;;7.50;99.90;;;;;;5117697;27;19994;-71
2023/12/21 01:35:12;;;;;;;;;;;7.50;99.90;;;;;;5135223;27;19952;-71
2023/12/21 01:37:38;;;;;;;;;;;7.50;99.90;;;;;;5141051;27;20040;-71
2023/12/21 01:40:04;;;;;;;;;;;7.50;99.90;;;;;;5132373;27;20040;-71
2023/12/21 01:42:29;;;;;;;;;;;7.50;99.90;;;;;;5148967;27;19911;-71
2023/12/21 01:44:55;;;;;;;;;;;7.50;99.90;;;;;;5149152;27;19983;-71
2023/12/21 01:47:21;;;;;;;;;;;7.50;99.90;;;;;;5132403;27;20504;-72
2023/12/21 01:49:46;;;;;;;;;;;7.50;99.90;;;;;;5128438;27;19911;-71
2023/12/21 01:52:12;;;;;;;;;;;7.50;99.90;;;;;;5128747;27;19911;-72
2023/12/21 01:54:37;;;;;;;;;;;7.50;99.90;;;;;;5137057;27;20500;-72
2023/12/21 01:57:03;;;;;;;;;;;7.50;99.90;;;;;;5128703;27;19911;-71
2023/12/21 01:59:29;;;;;;;;;;;7.50;99.90;;;;;;5137359;27;20284;-71
2023/12/21 02:01:54;;;;;;;;;;;7.50;99.90;;;;;;5131018;27;19912;-71
2023/12/21 02:04:21;;;;;;;;;;;7.50;99.90;;;;;;5130301;27;19915;-71
2023/12/21 02:06:46;;;;;;;;;;;7.60;99.90;;;;;;5128859;27;19907;-71
2023/12/21 02:09:13;;;;;;;;;;;7.60;99.90;;;;;;5144143;27;20444;-71
2023/12/21 02:11:38;;;;;;;;;;;7.50;99.90;;;;;;5110676;27;20291;-71
2023/12/21 02:14:04;;;;;;;;;;;7.60;99.90;;;;;;5134614;27;19911;-71
2023/12/21 02:16:35;;;;;;;;;;;7.50;99.90;;;;;;5138725;27;19911;-71
2023/12/21 02:19:01;;;;;;;;;;;7.50;99.90;;;;;;5122262;27;19992;-71
2023/12/21 02:21:28;;;;;;;;;;;7.50;99.90;;;;;;5148676;27;19918;-71
2023/12/21 02:23:54;;;;;;;;;;;7.60;99.90;;;;;;5142375;27;19950;-72
2023/12/21 02:26:19;;;;;;;;;;;7.60;99.90;;;;;;5138725;27;20585;-71
2023/12/21 02:28:45;;;;;;;;;;;7.60;99.90;;;;;;5149106;27;19912;-71
2023/12/21 02:31:10;;;;;;;;;;;7.60;99.90;;;;;;5130817;27;19919;-72
2023/12/21 02:33:36;;;;;;;;;;;7.60;99.90;;;;;;5123344;27;20582;-72
2023/12/21 02:36:03;;;;;;;;;;;7.60;99.90;;;;;;5125209;27;19933;-72
2023/12/21 02:38:28;;;;;;;;;;;7.60;99.90;;;;;;5138641;27;19942;-72
2023/12/21 02:40:54;;;;;;;;;;;7.60;99.90;;;;;;5131374;27;19947;-72
2023/12/21 02:43:19;;;;;;;;;;;7.60;99.90;;;;;;5124004;27;20000;-71
2023/12/21 02:45:45;;;;;;;;;;;7.60;99.90;;;;;;5135418;27;19922;-71
2023/12/21 02:48:10;;;;;;;;;;;7.60;99.90;;;;;;5143147;27;19953;-71
2023/12/21 02:50:36;;;;;;;;;;;7.60;99.90;;;;;;5145739;27;20735;-71
2023/12/21 02:53:01;;;;;;;;;;;7.60;99.90;;;;;;5129428;27;19912;-71
2023/12/21 02:55:27;;;;;;;;;;;7.60;99.90;;;;;;5140918;27;19934;-71
2023/12/21 02:57:52;;;;;;;;;;;7.60;99.90;;;;;;5148332;27;19921;-71
2023/12/21 03:00:18;;;;;;;;;;;7.60;99.90;;;;;;5120197;27;19911;-72
2023/12/21 03:02:43;;;;;;;;;;;7.60;99.90;;;;;;5147353;27;19907;-71
2023/12/21 03:05:09;;;;;;;;;;;7.70;99.90;;;;;;5136295;27;19964;-71
2023/12/21 03:07:34;;;;;;;;;;;7.70;99.90;;;;;;5147401;27;19955;-71
2023/12/21 03:10:00;;;;;;;;;;;7.60;99.90;;;;;;5141816;27;19911;-71
2023/12/21 03:12:25;;;;;;;;;;;7.70;99.90;;;;;;5135448;27;20340;-71
2023/12/21 03:14:51;;;;;;;;;;;7.70;99.90;;;;;;5139140;27;19911;-71
2023/12/21 03:17:16;;;;;;;;;;;7.60;99.90;;;;;;5147477;27;19918;-71
2023/12/21 03:19:42;;;;;;;;;;;7.60;99.90;;;;;;5128323;27;19923;-71
2023/12/21 03:22:07;;;;;;;;;;;7.70;99.90;;;;;;5140976;27;19919;-71
2023/12/21 03:24:33;;;;;;;;;;;7.70;99.90;;;;;;5129081;27;20267;-72
2023/12/21 03:26:58;;;;;;;;;;;7.70;99.90;;;;;;5138639;27;19911;-71
2023/12/21 03:29:24;;;;;;;;;;;7.70;99.90;;;;;;5146763;27;19995;-71
2023/12/21 03:31:52;;;;;;;;;;;7.70;99.90;;;;;;5147044;27;19926;-72
2023/12/21 03:34:18;;;;;;;;;;;7.70;99.90;;;;;;5138496;27;19911;-72
2023/12/21 03:36:43;;;;;;;;;;;7.70;99.90;;;;;;5146603;27;19911;-71
2023/12/21 03:39:09;;;;;;;;;;;7.70;99.90;;;;;;5143152;27;19950;-72
2023/12/21 03:41:34;;;;;;;;;;;7.70;99.90;;;;;;5137569;27;20646;-72
2023/12/21 03:44:00;;;;;;;;;;;7.70;99.90;;;;;;5141436;27;19915;-72
2023/12/21 03:46:25;;;;;;;;;;;7.70;99.90;;;;;;5133910;27;20008;-72
2023/12/21 03:48:51;;;;;;;;;;;7.70;99.90;;;;;;5138585;27;19958;-71
2023/12/21 03:51:17;;;;;;;;;;;7.70;99.90;;;;;;5138865;27;19911;-71
2023/12/21 03:53:42;;;;;;;;;;;7.70;99.90;;;;;;5138068;27;19994;-71
2023/12/21 03:56:08;;;;;;;;;;;7.70;99.90;;;;;;5121085;27;20051;-71
2023/12/21 03:58:35;;;;;;;;;;;7.70;99.90;;;;;;5127033;27;19922;-72
2023/12/21 04:01:00;;;;;;;;;;;7.70;99.90;;;;;;5146492;27;19911;-72
2023/12/21 04:03:26;;;;;;;;;;;7.70;99.90;;;;;;5143709;27;19911;-72
2023/12/21 04:05:53;;;;;;;;;;;7.70;99.90;;;;;;5142575;27;20276;-72
2023/12/21 04:08:21;;;;;;;;;;;7.70;99.90;;;;;;5134395;27;20301;-72
2023/12/21 04:10:46;;;;;;;;;;;7.70;99.90;;;;;;5141919;27;19961;-72
2023/12/21 04:13:12;;;;;;;;;;;7.70;99.90;;;;;;5140851;27;19911;-72
2023/12/21 04:15:37;;;;;;;;;;;7.70;99.90;;;;;;5136518;27;19908;-71
2023/12/21 04:18:03;;;;;;;;;;;7.70;99.90;;;;;;5140213;27;20313;-72
2023/12/21 04:20:28;;;;;;;;;;;7.70;99.90;;;;;;5133679;27;19918;-71
2023/12/21 04:22:54;;;;;;;;;;;7.70;99.90;;;;;;5135466;27;19912;-71
2023/12/21 04:25:21;;;;;;;;;;;7.70;99.90;;;;;;5137500;27;19915;-71
2023/12/21 04:27:46;;;;;;;;;;;7.70;99.90;;;;;;5145149;27;20340;-71
2023/12/21 04:30:12;;;;;;;;;;;7.80;99.90;;;;;;5131584;27;19912;-71
2023/12/21 04:32:37;;;;;;;;;;;7.80;99.90;;;;;;5133136;27;19919;-72
2023/12/21 04:35:03;;;;;;;;;;;7.70;99.90;;;;;;5141851;27;20343;-72
2023/12/21 04:37:29;;;;;;;;;;;7.70;99.90;;;;;;5126936;27;19988;-71
2023/12/21 04:39:54;;;;;;;;;;;7.70;99.90;;;;;;5145786;27;19919;-71
2023/12/21 04:42:20;;;;;;;;;;;7.70;99.90;;;;;;5129053;27;20060;-71
2023/12/21 04:44:45;;;;;;;;;;;7.70;99.90;;;;;;5132525;27;19915;-71
2023/12/21 04:47:12;;;;;;;;;;;7.70;99.90;;;;;;5154815;27;19956;-71
2023/12/21 04:49:38;;;;;;;;;;;7.70;99.90;;;;;;5135587;27;19912;-71
2023/12/21 04:52:03;;;;;;;;;;;7.80;99.90;;;;;;5144424;27;20481;-71
2023/12/21 04:54:29;;;;;;;;;;;7.70;99.90;;;;;;5137107;27;19911;-72
2023/12/21 04:56:55;;;;;;;;;;;7.80;99.90;;;;;;5144510;27;19911;-71
2023/12/21 04:59:20;;;;;;;;;;;7.80;99.90;;;;;;5136561;27;20568;-71
2023/12/21 05:01:50;;;;;;;;;;;7.80;99.90;;;;;;5143504;27;20568;-71
2023/12/21 05:04:15;;;;;;;;;;;7.70;99.90;;;;;;5123188;27;19923;-71
2023/12/21 05:06:41;;;;;;;;;;;7.80;99.90;;;;;;5121965;27;19907;-72
2023/12/21 05:09:06;;;;;;;;;;;7.80;99.90;;;;;;5138523;27;20015;-72
2023/12/21 05:11:32;;;;;;;;;;;7.80;99.90;;;;;;5126706;27;19911;-71
2023/12/21 05:13:57;;;;;;;;;;;7.80;99.90;;;;;;5141326;27;19920;-72
2023/12/21 05:16:23;;;;;;;;;;;7.80;99.90;;;;;;5141982;27;19911;-72
2023/12/21 05:18:49;;;;;;;;;;;7.80;99.90;;;;;;5142015;27;20026;-71
2023/12/21 05:21:15;;;;;;;;;;;7.80;99.90;;;;;;5139961;27;19922;-71
2023/12/21 05:23:40;;;;;;;;;;;7.80;99.90;;;;;;5133847;27;19911;-72
2023/12/21 05:26:12;;;;;;;;;;;7.80;99.90;;;;;;5147352;27;19914;-71
2023/12/21 05:28:42;;;;;;;;;;;7.80;99.90;;;;;;5130900;27;20251;-71
2023/12/21 05:31:08;;;;;;;;;;;7.80;99.90;;;;;;5149000;27;19915;-71
2023/12/21 05:33:33;;;;;;;;;;;7.80;99.90;;;;;;5146120;27;19919;-71
2023/12/21 05:35:59;;;;;;;;;;;7.80;99.90;;;;;;5145922;27;19911;-71
2023/12/21 05:38:26;;;;;;;;;;;7.80;99.90;;;;;;5148522;27;20200;-71
2023/12/21 05:40:51;;;;;;;;;;;7.80;99.90;;;;;;5140383;27;19911;-71
2023/12/21 05:43:17;;;;;;;;;;;7.80;99.90;;;;;;5149320;27;19911;-71
2023/12/21 05:45:42;;;;;;;;;;;7.80;99.90;;;;;;5148468;27;19954;-71
2023/12/21 05:48:08;;;;;;;;;;;7.80;99.90;;;;;;5129773;27;19911;-72
2023/12/21 05:50:33;;;;;;;;;;;7.80;99.90;;;;;;5139755;27;20367;-72
2023/12/21 05:52:59;;;;;;;;;;;7.80;99.90;;;;;;5125911;27;19911;-71
2023/12/21 05:55:24;;;;;;;;;;;7.80;99.90;;;;;;5145254;27;19911;-72
2023/12/21 05:57:50;;;;;;;;;;;7.80;99.90;;;;;;5128564;27;19994;-71
2023/12/21 06:00:16;;;;;;;;;;;7.80;99.90;;;;;;5143529;27;19942;-72
2023/12/21 06:02:41;;;;;;;;;;;7.80;99.90;;;;;;5146009;27;20407;-71
2023/12/21 06:05:07;;;;;;;;;;;7.80;99.90;;;;;;5133688;27;20324;-72
2023/12/21 06:07:32;;;;;;;;;;;7.80;99.90;;;;;;5148247;27;19918;-72
2023/12/21 06:09:58;;;;;;;;;;;7.80;99.90;;;;;;5144029;27;19911;-71
2023/12/21 06:12:23;;;;;;;;;;;7.80;99.90;;;;;;5144967;27;20014;-71
2023/12/21 06:14:49;;;;;;;;;;;7.80;99.90;;;;;;5139786;27;19911;-72
2023/12/21 06:17:17;;;;;;;;;;;7.90;99.90;;;;;;5113201;27;20629;-71
2023/12/21 06:19:43;;;;;;;;;;;7.80;99.90;;;;;;5133280;27;19933;-71
2023/12/21 06:22:09;;;;;;;;;;;7.90;99.90;;;;;;5139866;27;20698;-72
2023/12/21 06:24:34;;;;;;;;;;;7.90;99.90;;;;;;5133920;27;19939;-71
2023/12/21 06:27:00;;;;;;;;;;;7.90;99.90;;;;;;5139636;27;20385;-72
2023/12/21 06:29:25;;;;;;;;;;;7.90;99.90;;;;;;5138765;27;19931;-71
2023/12/21 06:31:51;;;;;;;;;;;7.90;99.90;;;;;;5147877;27;19966;-71
2023/12/21 06:34:16;;;;;;;;;;;7.90;99.90;;;;;;5144701;27;19911;-71
2023/12/21 06:36:42;;;;;;;;;;;7.90;99.90;;;;;;5147685;27;19914;-71
2023/12/21 06:39:08;;;;;;;;;;;7.90;99.90;;;;;;5147950;27;19987;-72
2023/12/21 06:41:34;;;;;;;;;;;7.90;99.90;;;;;;5147767;27;19922;-71
2023/12/21 06:43:59;;;;;;;;;;;7.90;99.90;;;;;;5148493;27;19911;-71
2023/12/21 06:46:25;;;;;;;;;;;7.90;99.90;;;;;;5120729;27;19918;-71
2023/12/21 06:48:50;;;;;;;;;;;7.90;99.90;;;;;;5127990;27;20252;-71
2023/12/21 06:51:16;;;;;;;;;;;7.90;99.90;;;;;;5142423;27;19911;-71
2023/12/21 06:53:41;;;;;;;;;;;7.90;99.90;;;;;;5134709;27;19994;-71
2023/12/21 06:56:07;;;;;;;;;;;7.90;99.90;;;;;;5135248;27;19956;-72
2023/12/21 06:58:33;;;;;;;;;;;8.00;99.90;;;;;;5147159;27;19950;-72
2023/12/21 07:00:58;;;;;;;;;;;7.90;99.90;;;;;;5147276;27;19907;-72
2023/12/21 07:03:24;;;;;;;;;;;7.90;99.90;;;;;;5145315;27;19911;-71
2023/12/21 07:05:52;;;;;;;;;;;8.00;99.90;;;;;;5143557;27;19937;-72
2023/12/21 07:08:18;;;;;;;;;;;7.90;99.90;;;;;;5142866;27;20460;-71
2023/12/21 07:10:43;;;;;;;;;;;8.00;99.90;;;;;;5117225;27;19960;-71
2023/12/21 07:13:09;;;;;;;;;;;8.00;99.90;;;;;;5108635;27;19918;-71
2023/12/21 07:15:35;;;;;;;;;;;8.00;99.90;;;;;;5127916;27;20523;-71
2023/12/21 07:18:00;;;;;;;;;;;8.00;99.90;;;;;;5128897;27;20363;-71
2023/12/21 07:20:26;;;;;;;;;;;8.00;99.90;;;;;;5147518;27;19918;-72
2023/12/21 07:22:51;;;;;;;;;;;8.00;99.90;;;;;;5128455;27;19915;-72
2023/12/21 07:25:17;;;;;;;;;;;8.00;99.90;;;;;;5138005;27;19915;-71
2023/12/21 07:27:42;;;;;;;;;;;8.00;99.90;;;;;;5130425;27;19907;-71
2023/12/21 07:30:08;;;;;;;;;;;8.00;99.90;;;;;;5137498;27;20639;-71
2023/12/21 07:32:34;;;;;;;;;;;8.00;99.90;;;;;;5138493;27;20006;-72
2023/12/21 07:35:00;;;;;;;;;;;8.00;99.90;;;;;;5126804;27;19911;-71
2023/12/21 07:37:25;;;;;;;;;;;8.00;99.90;;;;;;5147214;27;20002;-71
2023/12/21 07:39:50;;;;;;;;;;;8.00;99.90;;;;;;5127076;27;20710;-72
2023/12/21 07:42:17;;;;;;;;;;;8.00;99.90;;;;;;5138934;27;19916;-72
2023/12/21 07:44:43;;;;;;;;;;;8.00;99.90;;;;;;5136531;27;20037;-71
2023/12/21 07:47:09;;;;;;;;;;;8.00;99.90;;;;;;5146478;27;20232;-72
2023/12/21 07:49:35;;;;;;;;;;;8.00;99.90;;;;;;5137142;27;19919;-71
2023/12/21 07:52:00;;;;;;;;;;;8.10;99.90;;;;;;5128404;27;19912;-71
2023/12/21 07:54:26;;;;;;;;;;;8.10;99.90;;;;;;5127579;27;19937;-71
2023/12/21 07:56:52;;;;;;;;;;;8.10;99.90;;;;;;5130483;27;19919;-71
2023/12/21 07:59:18;;;;;;;;;;;8.10;99.90;;;;;;5143092;27;19951;-72
2023/12/21 08:01:44;;;;;;;;;;;8.10;99.90;;;;;;5145758;27;19911;-71
2023/12/21 08:04:09;;;;;;;;;;;8.10;99.90;;;;;;5137420;27;19919;-71
2023/12/21 08:06:35;;;;;;;;;;;8.10;99.90;;;;;;5143636;27;19993;-71
2023/12/21 08:09:01;;;;;;;;;;;8.10;99.90;;;;;;5124136;27;19915;-71
2023/12/21 08:11:26;;;;;;;;;;;8.10;99.90;;;;;;5125324;27;19911;-72
2023/12/21 08:13:52;;;;;;;;;;;8.10;99.90;;;;;;5146568;27;19918;-71
2023/12/21 08:16:17;;;;;;;;;;;8.10;99.90;;;;;;5119514;27;19911;-71
2023/12/21 08:18:44;;;;;;;;;;;8.10;99.90;;;;;;5146693;27;19911;-71
2023/12/21 08:21:10;;;;;;;;;;;8.10;99.90;;;;;;5137928;27;20536;-72
2023/12/21 08:23:35;;;;;;;;;;;8.10;99.90;;;;;;5130548;27;19964;-72
2023/12/21 08:26:03;;;;;;;;;;;8.10;99.90;;;;;;5141361;27;19990;-71
2023/12/21 08:28:30;;;;;;;;;;;8.10;99.90;;;;;;5145961;27;19922;-72
2023/12/21 08:30:56;;;;;;;;;;;8.10;99.90;;;;;;5136512;27;19915;-72
2023/12/21 08:33:21;;;;;;;;;;;8.10;99.90;;;;;;5138006;27;19917;-72
2023/12/21 08:35:47;;;;;;;;;;;8.10;99.90;;;;;;5124575;27;19951;-72
2023/12/21 08:38:12;;;;;;;;;;;8.10;99.90;;;;;;5140324;27;19907;-71
2023/12/21 08:40:38;;;;;;;;;;;8.10;99.90;;;;;;5135260;27;19958;-72
2023/12/21 08:43:03;;;;;;;;;;;8.10;99.90;;;;;;5139051;27;20265;-71
2023/12/21 08:45:29;;;;;;;;;;;8.10;99.90;;;;;;5145221;27;19915;-72
2023/12/21 08:47:56;;;;;;;;;;;8.10;99.90;;;;;;5130050;27;19964;-71
2023/12/21 08:50:21;;;;;;;;;;;8.10;99.90;;;;;;5137199;27;19919;-71
2023/12/21 08:52:47;;;;;;;;;;;8.20;99.90;;;;;;5136792;27;19991;-71
2023/12/21 08:55:12;;;;;;;;;;;8.10;99.90;;;;;;5141550;27;19911;-71
2023/12/21 08:57:38;;;;;;;;;;;8.20;99.90;;;;;;5147465;27;19919;-71
2023/12/21 09:00:08;;;;;;;;;;;8.20;99.90;;;;;;5149592;27;19911;-72
2023/12/21 09:02:34;;;;;;;;;;;8.20;99.90;;;;;;5129559;27;20528;-72
2023/12/21 09:05:00;;;;;;;;;;;8.20;99.90;;;;;;5126921;27;19947;-72
2023/12/21 09:07:25;;;;;;;;;;;8.20;99.90;;;;;;5129665;27;19958;-72
2023/12/21 09:09:51;;;;;;;;;;;8.20;99.90;;;;;;5138932;27;20004;-71
2023/12/21 09:12:18;;;;;;;;;;;8.20;99.90;;;;;;5135066;27;19965;-71
2023/12/21 09:14:44;;;;;;;;;;;8.20;99.90;;;;;;5131250;27;20002;-72
2023/12/21 09:17:10;;;;;;;;;;;8.20;99.90;;;;;;5131563;27;19998;-72
2023/12/21 09:19:35;;;;;;;;;;;8.30;99.90;;;;;;5137584;27;19907;-72
2023/12/21 09:22:00;;;;;;;;;;;8.20;99.90;;;;;;5102041;27;19972;-71
2023/12/21 09:24:26;;;;;;;;;;;8.30;99.90;;;;;;5134765;27;20692;-72
2023/12/21 09:26:51;;;;;;;;;;;8.30;99.90;;;;;;5131014;27;19911;-72
2023/12/21 09:29:17;;;;;;;;;;;8.30;99.90;;;;;;5113165;27;19964;-72
2023/12/21 09:31:43;;;;;;;;;;;8.20;99.90;;;;;;5145504;27;19919;-71
2023/12/21 09:34:08;;;;;;;;;;;8.30;99.90;;;;;;5135417;27;19917;-71
2023/12/21 09:36:34;;;;;;;;;;;8.30;99.90;;;;;;5132924;27;19925;-72
2023/12/21 09:38:59;;;;;;;;;;;8.30;99.90;;;;;;5132240;27;19923;-71
2023/12/21 09:41:25;;;;;;;;;;;8.30;99.90;;;;;;5108119;27;20435;-72
2023/12/21 09:43:52;;;;;;;;;;;8.30;99.90;;;;;;5125331;27;19922;-72
2023/12/21 09:46:18;;;;;;;;;;;8.30;99.90;;;;;;5127829;27;19927;-71
2023/12/21 09:48:44;;;;;;;;;;;8.30;99.90;;;;;;5127064;27;20360;-71
2023/12/21 09:51:10;;;;;;;;;;;8.30;99.90;;;;;;5128303;27;19972;-72
2023/12/21 09:53:35;;;;;;;;;;;8.30;99.90;;;;;;5126335;27;19927;-71
2023/12/21 09:56:01;;;;;;;;;;;8.30;99.90;;;;;;5124542;27;19915;-72
2023/12/21 09:58:28;;;;;;;;;;;8.40;99.90;;;;;;5119116;27;20000;-72
2023/12/21 10:00:53;;;;;;;;;;;8.30;99.90;;;;;;5138571;27;20009;-71
2023/12/21 10:03:19;;;;;;;;;;;8.40;99.90;;;;;;5141039;27;20029;-72
2023/12/21 10:05:46;;;;;;;;;;;8.40;99.90;;;;;;5126865;27;19926;-72
2023/12/21 10:08:11;;;;;;;;;;;8.40;99.90;;;;;;5121572;27;20096;-71
2023/12/21 10:10:37;;;;;;;;;;;8.40;99.90;;;;;;5123255;27;20006;-72
2023/12/21 10:13:03;;;;;;;;;;;8.40;99.90;;;;;;5125098;27;19929;-71
2023/12/21 10:15:35;;;;;;;;;;;8.40;99.90;;;;;;5148035;27;19918;-71
2023/12/21 10:18:00;;;;;;;;;;;8.40;99.90;;;;;;5095149;27;19915;-71
2023/12/21 10:20:26;;;;;;;;;;;8.40;99.90;;;;;;5143989;27;19979;-72
2023/12/21 10:22:52;;;;;;;;;;;8.40;99.90;;;;;;5128351;27;19946;-72
2023/12/21 10:25:17;;;;;;;;;;;8.40;99.90;;;;;;5137409;27;19971;-72
2023/12/21 10:27:52;;;;;;;;;;;8.40;99.90;;;;;;5145625;27;19911;-72
2023/12/21 10:30:19;;;;;;;;;;;8.40;99.90;;;;;;5142456;27;20542;-72
2023/12/21 10:32:44;;;;;;;;;;;8.40;99.90;;;;;;5145314;27;19961;-72
2023/12/21 10:35:11;;;;;;;;;;;8.50;99.90;;;;;;5124560;27;20367;-72
2023/12/21 10:37:37;;;;;;;;;;;8.50;99.90;;;;;;5138763;27;19918;-71
2023/12/21 10:40:03;;;;;;;;;;;8.50;99.90;;;;;;5142603;27;19911;-71
2023/12/21 10:42:28;;;;;;;;;;;8.50;99.90;;;;;;5108329;27;20006;-71
2023/12/21 10:44:55;;;;;;;;;;;8.50;99.90;;;;;;5146850;27;20007;-71
2023/12/21 10:47:21;;;;;;;;;;;8.50;99.90;;;;;;5143862;27;20287;-71
2023/12/21 10:49:50;;;;;;;;;;;8.50;99.90;;;;;;5134391;27;20278;-71
2023/12/21 10:52:16;;;;;;;;;;;8.50;99.90;;;;;;5141765;27;20348;-71
2023/12/21 10:54:42;;;;;;;;;;;8.50;99.90;;;;;;5138490;27;19918;-71
2023/12/21 10:57:10;;;;;;;;;;;8.50;99.90;;;;;;5132225;27;19976;-71
2023/12/21 10:59:37;;;;;;;;;;;8.50;99.90;;;;;;5144532;27;20013;-72
2023/12/21 11:02:03;;;;;;;;;;;8.60;99.90;;;;;;5128892;27;20379;-72
2023/12/21 11:04:28;;;;;;;;;;;8.60;99.90;;;;;;5122543;27;20315;-72
2023/12/21 11:06:54;;;;;;;;;;;8.50;99.90;;;;;;5137111;27;19911;-72
2023/12/21 11:09:21;;;;;;;;;;;8.60;99.90;;;;;;5147554;27;19911;-72
2023/12/21 11:11:47;;;;;;;;;;;8.60;99.90;;;;;;5138419;27;19907;-72
2023/12/21 11:14:12;;;;;;;;;;;8.60;99.90;;;;;;5120544;27;19918;-72
2023/12/21 11:16:45;;;;;;;;;;;8.60;99.90;;;;;;5146382;27;20006;-72
2023/12/21 11:19:13;;;;;;;;;;;8.60;99.90;;;;;;5141350;27;19995;-72
2023/12/21 11:21:39;;;;;;;;;;;8.60;99.90;;;;;;5135829;27;19911;-72
2023/12/21 11:24:04;;;;;;;;;;;8.60;99.90;;;;;;5134266;27;19912;-72
2023/12/21 11:26:30;;;;;;;;;;;8.60;99.90;;;;;;5138144;27;20543;-72
2023/12/21 11:29:06;;;;;;;;;;;8.60;99.90;;;;;;5123322;27;19911;-72
2023/12/21 11:31:35;;;;;;;;;;;8.70;99.90;;;;;;5125780;27;19919;-72
2023/12/21 11:34:11;;;;;;;;;;;8.70;99.90;;;;;;5134647;27;19915;-71
2023/12/21 11:36:36;;;;;;;;;;;8.60;99.90;;;;;;5126026;27;19911;-72
2023/12/21 11:39:02;;;;;;;;;;;8.70;99.90;;;;;;5145694;27;19907;-72
2023/12/21 11:41:28;;;;;;;;;;;8.70;99.90;;;;;;5145101;27;19911;-72
2023/12/21 11:43:56;;;;;;;;;;;8.70;99.90;;;;;;5145955;27;19915;-72
2023/12/21 11:46:22;;;;;;;;;;;8.70;99.90;;;;;;5121622;27;19915;-72
2023/12/21 11:48:47;;;;;;;;;;;8.70;99.90;;;;;;5125829;27;19964;-72
2023/12/21 11:51:13;;;;;;;;;;;8.70;99.90;;;;;;5121645;27;20697;-72
2023/12/21 11:53:39;;;;;;;;;;;8.70;99.90;;;;;;5137483;27;19918;-72
2023/12/21 11:56:11;;;;;;;;;;;8.70;99.90;;;;;;5134273;27;19911;-72
2023/12/21 11:58:39;;;;;;;;;;;8.70;99.90;;;;;;5138482;27;19907;-72
2023/12/21 12:01:04;;;;;;;;;;;8.70;99.90;;;;;;5146101;27;19926;-71
2023/12/21 12:03:30;;;;;;;;;;;8.80;99.90;;;;;;5130648;27;19911;-72
2023/12/21 12:05:59;;;;;;;;;;;8.80;99.90;;;;;;5133454;27;20018;-72
2023/12/21 12:08:25;;;;;;;;;;;8.80;99.90;;;;;;5141867;27;19911;-72
2023/12/21 12:10:51;;;;;;;;;;;8.80;99.90;;;;;;5145581;27;19929;-72
2023/12/21 12:13:21;;;;;;;;;;;8.80;99.90;;;;;;5133167;27;20632;-71
2023/12/21 12:15:48;;;;;;;;;;;8.80;99.90;;;;;;5145779;27;20025;-72
2023/12/21 12:18:16;;;;;;;;;;;8.80;99.90;;;;;;5128471;27;19912;-71
2023/12/21 12:20:42;;;;;;;;;;;8.80;99.90;;;;;;5137271;27;19911;-71
2023/12/21 12:23:09;;;;;;;;;;;8.80;99.90;;;;;;5133350;27;19926;-71
2023/12/21 12:25:35;;;;;;;;;;;8.80;99.90;;;;;;5136602;27;19938;-72
2023/12/21 12:28:00;;;;;;;;;;;8.90;99.90;;;;;;5135371;27;20588;-72
2023/12/21 12:30:26;;;;;;;;;;;8.90;99.90;;;;;;5136561;27;19911;-71
2023/12/21 12:32:52;;;;;;;;;;;8.90;99.90;;;;;;5143734;27;19946;-71
2023/12/21 12:35:18;;;;;;;;;;;8.90;99.90;;;;;;5144585;27;19911;-71
2023/12/21 12:37:46;;;;;;;;;;;8.90;99.90;;;;;;5149858;27;19915;-71
2023/12/21 12:40:11;;;;;;;;;;;8.90;99.90;;;;;;5126122;27;19912;-72
2023/12/21 12:42:37;;;;;;;;;;;8.90;99.90;;;;;;5137565;27;19964;-72
2023/12/21 12:45:05;;;;;;;;;;;8.90;99.90;;;;;;5133475;27;19911;-72
2023/12/21 12:47:31;;;;;;;;;;;8.90;99.90;;;;;;5133135;27;20034;-71
2023/12/21 12:49:57;;;;;;;;;;;8.90;99.90;;;;;;5146072;27;20109;-71
2023/12/21 12:52:22;;;;;;;;;;;9.00;99.90;;;;;;5129117;27;20419;-72
2023/12/21 12:54:48;;;;;;;;;;;8.90;99.90;;;;;;5112708;27;19998;-72
2023/12/21 12:57:13;;;;;;;;;;;9.00;99.90;;;;;;5141033;27;19915;-72
2023/12/21 12:59:39;;;;;;;;;;;9.00;99.90;;;;;;5139722;27;19918;-72
2023/12/21 13:02:05;;;;;;;;;;;9.00;99.90;;;;;;5129139;27;20010;-72
2023/12/21 13:04:31;;;;;;;;;;;9.00;99.90;;;;;;5128554;27;19984;-72
2023/12/21 13:06:56;;;;;;;;;;;9.00;99.90;;;;;;5148748;27;20011;-72
2023/12/21 13:09:22;;;;;;;;;;;9.00;99.90;;;;;;5133982;27;19968;-71
2023/12/21 13:11:48;;;;;;;;;;;9.10;99.90;;;;;;5139028;27;20445;-72
2023/12/21 13:14:15;;;;;;;;;;;9.10;99.90;;;;;;5135095;27;19942;-71
2023/12/21 13:16:46;;;;;;;;;;;9.10;99.90;;;;;;5117706;27;20455;-72
2023/12/21 13:19:12;;;;;;;;;;;9.10;99.90;;;;;;5128295;27;20394;-72
2023/12/21 13:21:37;;;;;;;;;;;9.10;99.90;;;;;;5128777;27;19953;-72
2023/12/21 13:24:04;;;;;;;;;;;9.10;99.90;;;;;;5140674;27;20099;-71
2023/12/21 13:26:29;;;;;;;;;;;9.10;99.90;;;;;;5129444;27;19911;-72
2023/12/21 13:28:55;;;;;;;;;;;9.10;99.90;;;;;;5136472;27;19989;-72
2023/12/21 13:31:22;;;;;;;;;;;9.10;99.90;;;;;;5143064;27;19919;-72
2023/12/21 13:33:47;;;;;;;;;;;9.10;99.90;;;;;;5142829;27;20628;-72
2023/12/21 13:36:13;;;;;;;;;;;9.10;99.90;;;;;;5142674;27;19961;-72
2023/12/21 13:38:38;;;;;;;;;;;9.10;99.90;;;;;;5133126;27;19938;-72
2023/12/21 13:41:04;;;;;;;;;;;9.00;99.90;;;;;;5128038;27;19924;-72
2023/12/21 13:43:29;;;;;;;;;;;9.10;99.90;;;;;;5136643;27;19912;-72
2023/12/21 13:45:55;;;;;;;;;;;9.00;99.90;;;;;;5138805;27;19914;-72
2023/12/21 13:48:21;;;;;;;;;;;9.00;99.90;;;;;;5141331;27;19919;-72
2023/12/21 13:50:47;;;;;;;;;;;9.00;99.90;;;;;;5133754;27;19951;-71
2023/12/21 13:53:12;;;;;;;;;;;9.10;99.90;;;;;;5126589;27;20035;-72
2023/12/21 13:55:38;;;;;;;;;;;9.10;99.90;;;;;;5127788;27;19962;-72
2023/12/21 13:58:04;;;;;;;;;;;9.00;99.90;;;;;;5135627;27;20395;-72
2023/12/21 14:00:29;;;;;;;;;;;9.00;99.90;;;;;;5134059;27;19911;-72
2023/12/21 14:02:56;;;;;;;;;;;9.10;99.90;;;;;;5127673;27;20668;-72
2023/12/21 14:05:22;;;;;;;;;;;9.00;99.90;;;;;;5107569;27;20729;-72
2023/12/21 14:07:47;;;;;;;;;;;9.10;99.90;;;;;;5128617;27;19911;-72
2023/12/21 14:10:13;;;;;;;;;;;9.10;99.90;;;;;;5127981;27;20006;-72
2023/12/21 14:12:38;;;;;;;;;;;9.00;99.90;;;;;;5116751;27;19964;-72
2023/12/21 14:15:04;;;;;;;;;;;9.00;99.90;;;;;;5113203;27;19911;-71
2023/12/21 14:17:30;;;;;;;;;;;9.00;99.90;;;;;;5144184;27;19974;-72
2023/12/21 14:19:55;;;;;;;;;;;9.00;99.90;;;;;;5137440;27;19953;-71
2023/12/21 14:22:22;;;;;;;;;;;9.00;99.90;;;;;;5127861;27;19911;-72